Time;durP1;ratioP1;P1;durP2;ratioP2;P2;SDS_P1;SDS_P2;PMS_P1;PMS_P2;Temp;Humidity;BMP_temperature;BMP_pressure;BME280_temperature;BME280_humidity;BME280_pressure;Samples;Min_cycle;Max_cycle;Signal;HPM_P1;HPM_P2
2022/08/31 00:06:16;;;;;;;2.72;1.50;;;18.20;94.10;;;;;;5064167;28;20115;-36
2022/08/31 00:08:42;;;;;;;2.03;1.50;;;18.20;94.30;;;;;;5064677;28;20128;-36
2022/08/31 00:11:12;;;;;;;2.42;1.20;;;18.20;94.20;;;;;;5064526;28;20521;-37
2022/08/31 00:13:39;;;;;;;2.15;1.45;;;18.20;94.30;;;;;;5063818;28;20399;-35
2022/08/31 00:16:05;;;;;;;1.40;1.30;;;18.10;94.30;;;;;;5064032;28;20028;-35
2022/08/31 00:18:30;;;;;;;2.50;1.50;;;18.10;94.30;;;;;;5063991;28;20071;-36
2022/08/31 00:20:56;;;;;;;3.35;1.33;;;18.10;94.40;;;;;;5063991;28;20451;-34
2022/08/31 00:23:22;;;;;;;1.92;1.35;;;18.10;94.50;;;;;;5065006;28;20115;-36
2022/08/31 00:25:48;;;;;;;2.60;1.30;;;18.00;94.60;;;;;;5063825;28;20361;-36
2022/08/31 00:28:16;;;;;;;1.40;1.30;;;18.00;94.60;;;;;;5063117;28;20190;-35
2022/08/31 00:30:42;;;;;;;4.63;1.73;;;18.00;94.60;;;;;;5063978;28;20024;-36
2022/08/31 00:33:10;;;;;;;1.60;1.48;;;18.00;94.80;;;;;;5064644;28;20502;-35
2022/08/31 00:35:37;;;;;;;1.80;1.30;;;18.00;94.70;;;;;;5063239;28;20401;-34
2022/08/31 00:38:04;;;;;;;1.85;1.17;;;18.00;94.60;;;;;;5064054;28;20507;-37
2022/08/31 00:40:30;;;;;;;1.65;1.40;;;17.90;94.70;;;;;;5063929;28;20024;-36
2022/08/31 00:42:58;;;;;;;3.28;1.65;;;17.90;94.80;;;;;;5062848;28;20523;-35
2022/08/31 00:45:23;;;;;;;1.60;1.48;;;17.90;94.80;;;;;;5064566;28;21330;-35
2022/08/31 00:47:49;;;;;;;2.28;1.30;;;17.80;95.00;;;;;;5063811;28;20020;-35
2022/08/31 00:50:16;;;;;;;2.63;1.67;;;17.80;95.00;;;;;;5063629;28;20119;-34
2022/08/31 00:52:47;;;;;;;1.70;1.60;;;17.80;95.00;;;;;;5063535;28;20502;-36
2022/08/31 00:55:18;;;;;;;1.50;1.40;;;17.80;95.20;;;;;;5064245;28;20455;-35
2022/08/31 00:57:46;;;;;;;3.58;1.90;;;17.80;95.10;;;;;;5063162;28;20040;-35
2022/08/31 01:00:16;;;;;;;1.73;1.30;;;17.70;95.10;;;;;;5064353;28;20370;-35
2022/08/31 01:02:42;;;;;;;1.58;1.30;;;17.70;95.10;;;;;;5063310;28;20086;-38
2022/08/31 01:05:08;;;;;;;2.03;1.67;;;17.70;95.10;;;;;;5063867;28;20028;-37
2022/08/31 01:07:35;;;;;;;1.60;1.33;;;17.70;95.20;;;;;;5063082;28;20385;-36
2022/08/31 01:10:01;;;;;;;3.50;1.70;;;17.70;95.10;;;;;;5063390;28;20032;-36
2022/08/31 01:12:27;;;;;;;2.22;1.50;;;17.70;95.30;;;;;;5063292;28;20040;-35
2022/08/31 01:14:54;;;;;;;2.55;1.75;;;17.60;95.30;;;;;;5063317;28;20586;-35
2022/08/31 01:17:20;;;;;;;2.10;1.30;;;17.60;95.30;;;;;;5064184;28;20401;-35
2022/08/31 01:20:06;;;;;;;1.67;1.52;;;17.60;95.40;;;;;;5063169;28;20076;-35
2022/08/31 01:22:44;;;;;;;4.07;1.58;;;17.50;95.30;;;;;;5063268;28;20464;-35
2022/08/31 01:25:11;;;;;;;2.58;1.83;;;17.50;95.40;;;;;;5063472;28;20021;-36
2022/08/31 01:27:37;;;;;;;2.03;1.55;;;17.50;95.40;;;;;;5063530;28;20068;-35
2022/08/31 01:30:06;;;;;;;1.70;1.33;;;17.50;95.50;;;;;;5063889;28;20305;-36
2022/08/31 01:32:32;;;;;;;1.52;1.20;;;17.40;95.50;;;;;;5062292;28;20032;-36
2022/08/31 01:34:57;;;;;;;1.50;1.40;;;17.40;95.50;;;;;;5063932;28;20036;-37
2022/08/31 01:37:23;;;;;;;1.50;1.40;;;17.40;95.60;;;;;;5063975;28;20035;-37
2022/08/31 01:39:50;;;;;;;1.80;1.30;;;17.30;95.60;;;;;;5065702;28;20773;-37
2022/08/31 01:42:17;;;;;;;1.33;1.23;;;17.30;95.60;;;;;;5067646;28;20023;-36
2022/08/31 01:44:43;;;;;;;2.45;1.60;;;17.30;95.60;;;;;;5066220;28;20102;-35
2022/08/31 01:47:08;;;;;;;1.40;1.27;;;17.30;95.60;;;;;;5067504;28;20078;-35
2022/08/31 01:49:34;;;;;;;3.65;1.50;;;17.30;95.60;;;;;;5067126;28;20492;-36
2022/08/31 01:51:59;;;;;;;1.55;1.40;;;17.30;95.60;;;;;;5066255;28;20098;-35
2022/08/31 01:54:26;;;;;;;2.15;1.40;;;17.20;95.70;;;;;;5067038;28;20045;-34
2022/08/31 01:56:53;;;;;;;1.83;1.40;;;17.20;95.70;;;;;;5067439;28;20020;-35
2022/08/31 01:59:20;;;;;;;3.03;1.40;;;17.20;95.70;;;;;;5066695;28;20033;-36
2022/08/31 02:01:50;;;;;;;1.40;1.30;;;17.10;95.80;;;;;;5066162;28;20032;-35
2022/08/31 02:04:19;;;;;;;1.48;1.20;;;17.10;95.70;;;;;;5067273;28;20024;-36
2022/08/31 02:06:48;;;;;;;4.45;1.60;;;17.10;95.80;;;;;;5066379;28;20101;-35
2022/08/31 02:09:15;;;;;;;2.58;1.35;;;17.10;95.80;;;;;;5066835;28;20029;-36
2022/08/31 02:11:41;;;;;;;1.67;1.38;;;17.00;95.80;;;;;;5063030;28;20025;-36
2022/08/31 02:14:07;;;;;;;2.40;1.25;;;17.00;95.70;;;;;;5055741;28;20032;-36
2022/08/31 02:16:33;;;;;;;1.52;1.25;;;17.00;95.80;;;;;;5066456;28;20555;-36
2022/08/31 02:18:59;;;;;;;1.55;1.45;;;17.00;95.70;;;;;;5066370;28;20119;-35
2022/08/31 02:21:25;;;;;;;1.58;1.00;;;17.00;95.70;;;;;;5066440;28;20127;-36
2022/08/31 02:23:50;;;;;;;1.85;1.40;;;17.00;95.70;;;;;;5066672;28;20460;-36
2022/08/31 02:26:16;;;;;;;2.50;1.50;;;17.00;95.70;;;;;;5066674;28;20044;-36
2022/08/31 02:28:42;;;;;;;2.95;1.15;;;16.90;95.60;;;;;;5065577;28;20025;-34
2022/08/31 02:31:07;;;;;;;1.33;1.23;;;16.90;95.60;;;;;;5066392;28;20063;-36
2022/08/31 02:33:33;;;;;;;1.95;1.42;;;16.90;95.60;;;;;;5066230;28;20021;-35
2022/08/31 02:35:59;;;;;;;1.20;1.00;;;16.90;95.60;;;;;;5065362;28;20327;-35
2022/08/31 02:38:26;;;;;;;1.80;1.30;;;16.80;95.60;;;;;;5066264;28;20040;-36
2022/08/31 02:40:51;;;;;;;3.05;1.38;;;16.80;95.60;;;;;;5065237;28;20380;-36
2022/08/31 02:43:18;;;;;;;1.77;1.00;;;16.70;95.60;;;;;;5066551;28;20033;-36
2022/08/31 02:45:44;;;;;;;1.13;1.02;;;16.70;95.50;;;;;;5065325;28;20361;-37
2022/08/31 02:48:09;;;;;;;2.60;1.20;;;16.70;95.60;;;;;;5066388;28;20085;-35
2022/08/31 02:50:47;;;;;;;1.88;1.42;;;16.70;95.50;;;;;;5064936;28;20555;-35
2022/08/31 02:53:14;;;;;;;1.40;1.30;;;16.70;95.80;;;;;;5066232;28;20577;-36
2022/08/31 02:55:41;;;;;;;1.40;1.10;;;16.60;95.50;;;;;;5065239;28;20055;-35
2022/08/31 02:58:09;;;;;;;2.22;1.20;;;16.60;95.50;;;;;;5065862;28;20063;-35
2022/08/31 03:00:35;;;;;;;2.53;1.65;;;16.60;95.50;;;;;;5065200;28;20099;-35
2022/08/31 03:03:00;;;;;;;2.60;1.33;;;16.60;95.50;;;;;;5065348;28;20020;-34
2022/08/31 03:05:26;;;;;;;1.30;1.20;;;16.50;95.50;;;;;;5065709;28;20107;-35
2022/08/31 03:07:53;;;;;;;3.83;1.45;;;16.50;95.50;;;;;;5065927;28;20481;-36
2022/08/31 03:10:21;;;;;;;1.13;1.02;;;16.40;95.40;;;;;;5064784;28;20036;-36
2022/08/31 03:12:48;;;;;;;1.30;1.20;;;16.40;95.40;;;;;;5065301;28;20066;-35
2022/08/31 03:15:14;;;;;;;1.70;1.40;;;16.40;95.40;;;;;;5065518;28;20024;-35
2022/08/31 03:17:40;;;;;;;2.50;1.27;;;16.40;95.40;;;;;;5065071;28;20029;-36
2022/08/31 03:20:06;;;;;;;1.30;1.20;;;16.40;95.30;;;;;;5065497;28;20476;-35
2022/08/31 03:22:33;;;;;;;1.30;1.20;;;16.40;95.30;;;;;;5064489;28;20059;-36
2022/08/31 03:24:59;;;;;;;1.88;1.17;;;16.30;95.20;;;;;;5064897;28;20028;-35
2022/08/31 03:27:26;;;;;;;1.30;1.20;;;16.30;95.10;;;;;;5065266;28;20024;-36
2022/08/31 03:29:52;;;;;;;0.93;0.90;;;16.30;95.10;;;;;;5045210;28;20404;-36
2022/08/31 03:32:18;;;;;;;2.03;1.02;;;16.30;95.00;;;;;;5059164;28;20020;-35
2022/08/31 03:34:44;;;;;;;0.90;0.90;;;16.20;95.00;;;;;;5064589;28;20028;-36
2022/08/31 03:37:10;;;;;;;1.60;1.30;;;16.20;95.00;;;;;;5064398;28;20040;-36
2022/08/31 03:39:36;;;;;;;1.88;1.20;;;16.20;95.00;;;;;;5064719;28;20020;-36
2022/08/31 03:42:02;;;;;;;1.92;1.27;;;16.20;94.80;;;;;;5064440;28;20021;-36
2022/08/31 03:44:28;;;;;;;3.00;1.33;;;16.10;94.80;;;;;;5063789;28;20028;-35
2022/08/31 03:46:56;;;;;;;1.98;1.20;;;16.20;94.80;;;;;;5064328;28;20025;-36
2022/08/31 03:49:22;;;;;;;1.60;1.38;;;16.10;94.70;;;;;;5065451;28;20024;-37
2022/08/31 03:51:47;;;;;;;1.50;1.20;;;16.10;94.70;;;;;;5063709;28;20384;-37
2022/08/31 03:54:13;;;;;;;1.27;1.17;;;16.10;94.70;;;;;;5064311;28;20064;-38
2022/08/31 03:56:39;;;;;;;2.95;1.30;;;16.00;94.60;;;;;;5064342;28;20697;-36
2022/08/31 03:59:06;;;;;;;2.28;1.25;;;16.00;94.60;;;;;;5059753;28;20032;-38
2022/08/31 04:01:34;;;;;;;1.98;1.27;;;15.90;94.60;;;;;;5065197;28;20020;-35
2022/08/31 04:04:01;;;;;;;2.40;1.40;;;15.90;94.60;;;;;;5064316;28;20109;-35
2022/08/31 04:06:26;;;;;;;2.33;1.35;;;15.90;94.60;;;;;;5064071;28;20482;-34
2022/08/31 04:08:52;;;;;;;1.25;0.90;;;15.90;94.60;;;;;;5064220;28;20115;-36
2022/08/31 04:11:18;;;;;;;1.75;1.20;;;15.90;94.60;;;;;;5064733;28;20036;-36
2022/08/31 04:13:45;;;;;;;2.70;1.30;;;15.80;94.60;;;;;;5063046;28;20024;-37
2022/08/31 04:16:13;;;;;;;1.85;1.00;;;15.80;94.50;;;;;;5064869;28;20417;-35
2022/08/31 04:18:41;;;;;;;1.40;1.10;;;15.80;94.50;;;;;;5064531;28;20025;-37
2022/08/31 04:21:11;;;;;;;1.50;1.10;;;15.80;94.40;;;;;;5063960;28;20021;-36
2022/08/31 04:23:39;;;;;;;1.30;1.20;;;15.80;94.40;;;;;;5064062;28;20060;-37
2022/08/31 04:26:25;;;;;;;3.17;1.30;;;15.80;94.30;;;;;;5063875;28;20502;-36
2022/08/31 04:28:51;;;;;;;1.23;1.10;;;15.80;94.20;;;;;;5063161;28;20040;-36
2022/08/31 04:31:18;;;;;;;1.35;1.05;;;15.80;94.20;;;;;;5064305;28;20016;-36
2022/08/31 04:33:43;;;;;;;1.20;0.88;;;15.70;94.10;;;;;;5063035;28;20388;-36
2022/08/31 04:36:12;;;;;;;2.63;1.00;;;15.70;94.10;;;;;;5064060;28;20029;-36
2022/08/31 04:38:39;;;;;;;2.53;1.35;;;15.70;94.00;;;;;;5063340;28;20037;-37
2022/08/31 04:41:08;;;;;;;1.10;0.93;;;15.70;93.90;;;;;;5063103;28;20428;-35
2022/08/31 04:43:35;;;;;;;1.60;1.10;;;15.70;94.00;;;;;;5063993;28;20023;-36
2022/08/31 04:46:05;;;;;;;1.35;1.20;;;15.60;93.90;;;;;;5063673;28;20286;-35
2022/08/31 04:48:31;;;;;;;1.10;1.00;;;15.60;93.80;;;;;;5063575;28;20518;-35
2022/08/31 04:51:06;;;;;;;1.20;1.08;;;15.60;93.70;;;;;;5063777;28;20025;-36
2022/08/31 04:53:31;;;;;;;1.98;1.13;;;15.60;93.60;;;;;;5063199;28;20431;-35
2022/08/31 04:55:57;;;;;;;2.00;1.30;;;15.50;93.40;;;;;;5063012;28;20074;-36
2022/08/31 04:58:23;;;;;;;1.15;1.05;;;15.50;93.30;;;;;;5064871;28;20042;-35
2022/08/31 05:00:50;;;;;;;1.85;0.90;;;15.50;93.30;;;;;;5063011;28;20154;-36
2022/08/31 05:03:16;;;;;;;1.92;1.00;;;15.50;93.20;;;;;;5063726;28;20029;-36
2022/08/31 05:05:42;;;;;;;1.05;0.95;;;15.50;93.20;;;;;;5062885;28;20039;-36
2022/08/31 05:08:08;;;;;;;0.95;0.85;;;15.50;93.10;;;;;;5063977;28;20379;-37
2022/08/31 05:10:33;;;;;;;0.82;0.77;;;15.50;93.00;;;;;;5062375;28;20025;-36
2022/08/31 05:12:59;;;;;;;1.63;0.98;;;15.40;93.00;;;;;;5063300;28;20036;-36
2022/08/31 05:15:24;;;;;;;2.08;1.15;;;15.40;92.80;;;;;;5066997;28;20113;-36
2022/08/31 05:17:50;;;;;;;0.82;0.82;;;15.40;92.60;;;;;;5066560;28;20043;-36
2022/08/31 05:20:16;;;;;;;1.58;0.93;;;15.40;92.60;;;;;;5067351;28;20023;-35
2022/08/31 05:22:41;;;;;;;0.70;0.70;;;15.40;92.40;;;;;;5066336;28;20024;-35
2022/08/31 05:25:08;;;;;;;0.85;0.60;;;15.40;92.40;;;;;;5066940;28;20027;-37
2022/08/31 05:27:35;;;;;;;2.17;1.00;;;15.40;92.50;;;;;;5067898;28;20073;-36
2022/08/31 05:30:00;;;;;;;1.30;0.85;;;15.40;92.40;;;;;;5065941;28;20081;-37
2022/08/31 05:32:26;;;;;;;0.68;0.55;;;15.40;92.40;;;;;;5067030;28;20491;-36
2022/08/31 05:34:51;;;;;;;1.23;0.70;;;15.40;92.30;;;;;;5067349;28;20028;-37
2022/08/31 05:37:17;;;;;;;0.93;0.60;;;15.40;92.20;;;;;;5066311;28;20467;-36
2022/08/31 05:39:43;;;;;;;1.40;0.70;;;15.40;92.20;;;;;;5066826;28;20551;-36
2022/08/31 05:42:08;;;;;;;0.60;0.60;;;15.50;92.10;;;;;;5067057;28;20543;-36
2022/08/31 05:44:35;;;;;;;0.90;0.60;;;15.40;92.10;;;;;;5078989;28;20085;-35
2022/08/31 05:47:01;;;;;;;0.50;0.50;;;15.40;92.00;;;;;;5068095;28;20020;-36
2022/08/31 05:49:27;;;;;;;0.82;0.70;;;15.40;91.90;;;;;;5066875;28;20406;-35
2022/08/31 05:51:52;;;;;;;1.77;0.90;;;15.40;91.90;;;;;;5065955;28;20430;-36
2022/08/31 05:54:18;;;;;;;1.15;0.80;;;15.40;91.90;;;;;;5066147;28;20135;-36
2022/08/31 05:56:44;;;;;;;1.48;0.80;;;15.40;91.80;;;;;;5064111;28;20132;-35
2022/08/31 05:59:11;;;;;;;3.20;0.90;;;15.40;91.70;;;;;;5065786;28;20032;-37
2022/08/31 06:01:39;;;;;;;1.10;0.77;;;15.40;91.60;;;;;;5064968;28;20464;-35
2022/08/31 06:04:05;;;;;;;1.58;0.90;;;15.40;91.60;;;;;;5065516;28;20040;-36
2022/08/31 06:06:32;;;;;;;1.45;1.05;;;15.40;91.60;;;;;;5065199;28;20062;-36
2022/08/31 06:08:57;;;;;;;0.70;0.70;;;15.40;91.60;;;;;;5065647;28;20025;-34
2022/08/31 06:11:26;;;;;;;1.02;0.82;;;15.40;91.60;;;;;;5065881;28;20031;-36
2022/08/31 06:13:54;;;;;;;1.15;0.80;;;15.40;91.60;;;;;;5065392;28;20122;-37
2022/08/31 06:16:21;;;;;;;0.77;0.60;;;15.40;91.70;;;;;;5065541;28;20500;-35
2022/08/31 06:18:50;;;;;;;0.70;0.70;;;15.40;91.60;;;;;;5064822;28;20043;-36
2022/08/31 06:21:22;;;;;;;1.17;0.80;;;15.40;91.60;;;;;;5065149;28;20834;-38
2022/08/31 06:23:50;;;;;;;1.52;0.90;;;15.40;91.60;;;;;;5064240;28;20013;-35
2022/08/31 06:26:19;;;;;;;0.90;0.85;;;15.40;91.70;;;;;;5064051;28;20025;-34
2022/08/31 06:28:47;;;;;;;0.90;0.80;;;15.40;91.70;;;;;;5064393;28;20024;-35
2022/08/31 06:31:23;;;;;;;1.45;1.27;;;15.40;91.70;;;;;;5065742;28;20041;-35
2022/08/31 06:33:50;;;;;;;1.17;0.80;;;15.40;91.70;;;;;;5064309;28;20027;-36
2022/08/31 06:36:19;;;;;;;0.80;0.70;;;15.40;91.70;;;;;;5065504;28;20135;-36
2022/08/31 06:38:46;;;;;;;1.88;0.80;;;15.40;91.70;;;;;;5064494;28;20033;-36
2022/08/31 06:41:20;;;;;;;1.10;0.93;;;15.40;91.80;;;;;;5064199;28;20032;-36
2022/08/31 06:43:46;;;;;;;0.93;0.63;;;15.40;91.80;;;;;;5064338;28;20119;-34
2022/08/31 06:46:13;;;;;;;0.90;0.80;;;15.40;91.90;;;;;;5065579;28;20016;-34
2022/08/31 06:48:39;;;;;;;3.35;1.02;;;15.40;91.90;;;;;;5064063;28;20063;-35
2022/08/31 06:51:06;;;;;;;1.13;0.60;;;15.40;91.90;;;;;;5064650;28;20032;-35
2022/08/31 06:53:39;;;;;;;0.98;0.85;;;15.50;91.90;;;;;;5064938;28;20122;-36
2022/08/31 06:56:24;;;;;;;1.13;0.90;;;15.50;92.00;;;;;;5062938;28;20016;-36
2022/08/31 06:58:51;;;;;;;2.92;0.90;;;15.50;92.00;;;;;;5065448;28;20483;-36
2022/08/31 07:01:19;;;;;;;1.13;0.70;;;15.50;92.10;;;;;;5064823;28;20117;-35
2022/08/31 07:03:48;;;;;;;1.00;0.80;;;15.60;92.10;;;;;;5064823;28;20020;-36
2022/08/31 07:06:16;;;;;;;1.02;0.90;;;15.70;92.20;;;;;;5065297;28;20028;-35
2022/08/31 07:08:44;;;;;;;1.30;0.90;;;15.70;92.20;;;;;;5064643;28;20020;-36
2022/08/31 07:11:12;;;;;;;1.70;0.90;;;15.70;92.30;;;;;;5065628;28;20349;-36
2022/08/31 07:13:39;;;;;;;0.93;0.90;;;15.70;92.30;;;;;;5064881;28;20025;-36
2022/08/31 07:16:07;;;;;;;1.38;1.02;;;15.80;92.30;;;;;;5064300;28;20376;-35
2022/08/31 07:18:33;;;;;;;1.77;0.90;;;15.80;92.30;;;;;;5064557;28;20558;-36
2022/08/31 07:21:12;;;;;;;0.73;0.63;;;15.90;92.40;;;;;;5064941;28;20030;-36
2022/08/31 07:23:38;;;;;;;2.72;1.10;;;16.00;92.50;;;;;;5064461;28;20017;-35
2022/08/31 07:26:06;;;;;;;1.10;0.90;;;16.00;92.40;;;;;;5064140;28;20429;-36
2022/08/31 07:28:32;;;;;;;1.55;0.70;;;16.10;92.40;;;;;;5064722;28;20078;-36
2022/08/31 07:31:00;;;;;;;1.95;0.98;;;16.10;92.40;;;;;;5064193;28;20808;-35
2022/08/31 07:33:26;;;;;;;1.38;0.80;;;16.20;92.40;;;;;;5064468;28;20111;-36
2022/08/31 07:35:51;;;;;;;2.92;0.95;;;16.30;92.40;;;;;;5063478;28;20464;-36
2022/08/31 07:43:45;;;;;;;3.80;1.20;;;16.50;92.50;;;;;;5063475;28;20121;-36
2022/08/31 07:46:11;;;;;;;1.67;1.00;;;16.60;92.60;;;;;;5064143;28;20444;-36
2022/08/31 07:48:36;;;;;;;1.17;1.02;;;16.70;92.70;;;;;;5064847;28;20586;-37
2022/08/31 07:51:02;;;;;;;2.17;0.93;;;16.80;92.60;;;;;;5063451;28;20036;-41
2022/08/31 07:53:27;;;;;;;1.52;0.90;;;16.90;92.70;;;;;;5064644;28;20549;-35
2022/08/31 07:55:57;;;;;;;1.80;1.25;;;16.90;92.60;;;;;;5064923;28;20016;-36
2022/08/31 07:58:26;;;;;;;1.08;0.80;;;17.00;92.60;;;;;;5064020;28;20055;-35
2022/08/31 08:00:52;;;;;;;1.50;1.23;;;17.10;92.60;;;;;;5064256;28;20020;-36
2022/08/31 08:03:17;;;;;;;1.63;1.13;;;17.20;92.50;;;;;;5064466;28;20511;-35
2022/08/31 08:05:43;;;;;;;2.25;1.00;;;17.30;92.50;;;;;;5063972;28;20460;-35
2022/08/31 08:08:10;;;;;;;1.77;1.00;;;17.40;92.60;;;;;;5064914;28;20374;-35
2022/08/31 08:10:41;;;;;;;2.58;1.10;;;17.40;92.50;;;;;;5064363;28;20020;-37
2022/08/31 08:13:07;;;;;;;1.70;1.00;;;17.50;92.50;;;;;;5064144;28;20043;-36
2022/08/31 08:15:34;;;;;;;0.80;0.80;;;17.60;92.50;;;;;;5063579;28;20077;-36
2022/08/31 08:18:02;;;;;;;1.83;1.30;;;17.70;92.40;;;;;;5064457;28;20043;-36
2022/08/31 08:20:27;;;;;;;2.03;0.90;;;17.70;92.30;;;;;;5063488;28;20353;-36
2022/08/31 08:22:53;;;;;;;1.25;0.90;;;17.80;92.30;;;;;;5060503;28;20025;-36
2022/08/31 08:25:18;;;;;;;2.60;1.20;;;17.90;92.30;;;;;;5064939;28;20036;-35
2022/08/31 08:27:44;;;;;;;1.55;1.00;;;17.90;92.20;;;;;;5062695;28;20115;-35
2022/08/31 08:30:12;;;;;;;0.82;0.80;;;18.00;92.20;;;;;;5065003;28;20028;-36
2022/08/31 08:32:39;;;;;;;2.35;1.10;;;18.00;92.10;;;;;;5063220;28;20021;-36
2022/08/31 08:35:05;;;;;;;1.65;0.98;;;18.00;92.20;;;;;;5064310;28;20372;-36
2022/08/31 08:37:31;;;;;;;4.55;1.00;;;18.20;92.10;;;;;;5063743;28;20393;-38
2022/08/31 08:39:58;;;;;;;1.35;1.00;;;18.20;92.10;;;;;;5062728;28;20020;-37
2022/08/31 08:42:24;;;;;;;1.60;0.95;;;18.30;92.10;;;;;;5063878;28;20116;-38
2022/08/31 08:44:50;;;;;;;2.97;1.10;;;18.40;92.00;;;;;;5064212;28;20029;-36
2022/08/31 08:47:23;;;;;;;1.80;0.90;;;18.50;92.00;;;;;;5062870;28;20097;-35
2022/08/31 08:49:53;;;;;;;2.17;0.93;;;18.50;91.90;;;;;;5066706;28;20063;-35
2022/08/31 08:52:23;;;;;;;1.67;0.90;;;18.60;91.80;;;;;;5066132;28;20162;-36
2022/08/31 08:54:52;;;;;;;1.58;1.13;;;18.70;91.80;;;;;;5067404;28;20052;-36
2022/08/31 08:57:25;;;;;;;2.65;1.08;;;18.70;91.80;;;;;;5067736;28;20025;-36
2022/08/31 08:59:55;;;;;;;4.55;1.30;;;18.80;91.80;;;;;;5067862;28;20048;-35
2022/08/31 09:02:44;;;;;;;1.98;1.13;;;19.00;91.60;;;;;;5067622;28;20024;-37
2022/08/31 09:05:29;;;;;;;2.22;0.90;;;19.10;91.50;;;;;;5068245;28;20020;-37
2022/08/31 09:08:31;;;;;;;1.00;0.90;;;19.30;91.30;;;;;;5066932;28;20025;-35
2022/08/31 09:11:05;;;;;;;1.65;1.15;;;19.40;91.20;;;;;;5030123;28;20043;-37
2022/08/31 09:13:37;;;;;;;2.22;1.00;;;19.50;91.10;;;;;;5067810;28;20099;-36
2022/08/31 09:16:08;;;;;;;1.42;1.00;;;19.50;91.10;;;;;;5066609;28;20033;-37
2022/08/31 09:18:45;;;;;;;1.23;1.13;;;19.50;91.10;;;;;;5067027;28;20044;-35
2022/08/31 09:21:28;;;;;;;1.45;1.00;;;19.50;91.00;;;;;;5068225;28;20479;-36
2022/08/31 09:23:58;;;;;;;1.35;0.90;;;19.50;91.30;;;;;;5066149;28;20549;-36
2022/08/31 09:26:24;;;;;;;1.35;0.88;;;19.50;91.00;;;;;;5067183;28;20036;-37
2022/08/31 09:28:51;;;;;;;1.08;0.80;;;19.60;91.00;;;;;;5065944;28;20029;-36
2022/08/31 09:31:39;;;;;;;0.82;0.80;;;19.60;91.00;;;;;;5067705;28;20020;-36
2022/08/31 09:34:11;;;;;;;1.25;1.08;;;19.60;91.10;;;;;;5066895;28;20024;-36
2022/08/31 09:36:39;;;;;;;1.52;0.93;;;19.60;91.00;;;;;;5066030;28;20494;-36
2022/08/31 09:39:28;;;;;;;3.00;0.80;;;19.60;90.90;;;;;;5066944;28;20116;-37
2022/08/31 09:42:02;;;;;;;2.20;1.27;;;19.70;90.80;;;;;;5067752;28;20024;-36
2022/08/31 09:44:33;;;;;;;1.55;0.85;;;19.80;90.60;;;;;;5065559;28;20541;-37
2022/08/31 09:47:04;;;;;;;1.23;0.90;;;19.90;90.40;;;;;;5066397;28;20225;-36
2022/08/31 09:49:36;;;;;;;1.35;0.90;;;19.90;90.30;;;;;;5066075;28;20028;-36
2022/08/31 09:52:20;;;;;;;1.27;0.95;;;20.00;90.20;;;;;;5066147;28;20108;-35
2022/08/31 09:55:12;;;;;;;1.20;0.98;;;20.10;90.00;;;;;;5065861;28;20048;-38
2022/08/31 09:57:56;;;;;;;1.25;0.80;;;20.20;90.00;;;;;;5065392;28;20072;-36
2022/08/31 10:00:37;;;;;;;2.35;0.90;;;20.20;89.80;;;;;;5066537;28;20395;-36
2022/08/31 10:03:17;;;;;;;1.13;1.00;;;20.30;89.70;;;;;;5046796;28;20056;-36
2022/08/31 10:05:43;;;;;;;2.03;0.88;;;20.40;88.70;;;;;;5061944;28;20270;-35
2022/08/31 10:08:12;;;;;;;2.20;1.02;;;20.50;88.00;;;;;;5067146;28;20040;-36
2022/08/31 10:10:42;;;;;;;2.35;0.93;;;20.50;87.80;;;;;;5066133;28;20036;-36
2022/08/31 10:13:12;;;;;;;2.97;1.20;;;20.60;87.60;;;;;;5066395;28;20047;-37
2022/08/31 10:15:52;;;;;;;3.30;0.93;;;20.60;87.30;;;;;;5065987;28;20115;-35
2022/08/31 10:18:26;;;;;;;0.63;0.63;;;20.70;87.30;;;;;;5065915;28;20033;-36
2022/08/31 10:21:06;;;;;;;2.88;0.93;;;20.80;87.40;;;;;;5066183;28;20104;-37
2022/08/31 10:23:53;;;;;;;2.88;1.05;;;20.80;87.10;;;;;;5066193;28;20027;-37
2022/08/31 10:26:41;;;;;;;1.40;0.90;;;20.90;86.90;;;;;;5065903;28;20690;-38
2022/08/31 10:29:18;;;;;;;1.92;0.70;;;20.90;86.50;;;;;;5065764;28;20025;-36
2022/08/31 10:31:48;;;;;;;1.00;0.80;;;21.00;86.40;;;;;;5065316;28;20032;-36
2022/08/31 10:37:14;;;;;;;1.67;0.80;;;21.10;86.20;;;;;;5066168;28;20167;-36
2022/08/31 10:39:57;;;;;;;1.05;0.80;;;21.10;86.10;;;;;;5064930;28;20028;-37
2022/08/31 10:42:28;;;;;;;;;;;21.20;86.20;;;;;;5066206;28;20025;-36
2022/08/31 10:45:08;;;;;;;1.25;0.80;;;21.30;86.00;;;;;;5066333;28;20372;-36
2022/08/31 10:47:40;;;;;;;0.77;0.77;;;21.40;85.80;;;;;;5065383;28;20426;-36
2022/08/31 10:50:07;;;;;;;1.02;0.68;;;21.50;85.60;;;;;;5065988;28;20028;-36
2022/08/31 10:52:50;;;;;;;3.55;1.00;;;21.50;85.40;;;;;;5065818;28;20098;-36
2022/08/31 10:55:39;;;;;;;1.33;0.60;;;21.60;85.40;;;;;;5065271;28;20028;-36
2022/08/31 10:58:10;;;;;;;1.13;0.88;;;21.70;85.50;;;;;;5061663;28;20214;-36
2022/08/31 11:00:51;;;;;;;1.67;1.00;;;21.70;85.20;;;;;;5064652;28;20024;-36
2022/08/31 11:03:33;;;;;;;1.73;0.70;;;21.70;85.10;;;;;;5062322;28;20552;-36
2022/08/31 11:06:12;;;;;;;1.98;0.90;;;21.70;84.90;;;;;;5064858;28;20551;-36
2022/08/31 11:08:54;;;;;;;1.27;1.00;;;21.80;84.70;;;;;;5062330;28;20529;-35
2022/08/31 11:11:42;;;;;;;1.10;1.00;;;21.80;84.30;;;;;;5064809;28;20385;-36
2022/08/31 11:14:21;;;;;;;1.33;0.80;;;21.90;84.10;;;;;;5055033;28;20027;-37
2022/08/31 11:17:14;;;;;;;2.03;0.90;;;22.00;84.40;;;;;;5064443;28;20017;-36
2022/08/31 11:19:53;;;;;;;2.20;1.10;;;22.10;83.50;;;;;;5057658;28;20052;-34
2022/08/31 11:22:36;;;;;;;3.65;1.00;;;22.20;82.90;;;;;;5064890;28;20541;-36
2022/08/31 11:25:23;;;;;;;2.65;1.13;;;22.20;82.60;;;;;;5065029;28;20065;-37
2022/08/31 11:28:34;;;;;;;1.25;1.05;;;22.30;82.10;;;;;;5064426;28;20028;-36
2022/08/31 11:31:26;;;;;;;3.72;1.40;;;22.40;82.20;;;;;;5044597;28;20028;-37
2022/08/31 11:33:56;;;;;;;1.10;1.00;;;22.50;81.50;;;;;;5063489;28;20393;-36
2022/08/31 11:36:48;;;;;;;3.05;1.15;;;22.60;81.50;;;;;;5065053;28;20017;-35
2022/08/31 11:39:17;;;;;;;;;;;22.60;81.10;;;;;;5065208;28;20032;-39
2022/08/31 11:41:47;;;;;;;2.28;0.90;;;22.70;80.90;;;;;;5064373;28;19915;-36
2022/08/31 11:44:28;;;;;;;1.38;1.00;;;22.70;80.70;;;;;;5064281;28;20507;-36
2022/08/31 11:47:06;;;;;;;1.50;1.30;;;22.70;80.40;;;;;;5064671;28;20028;-35
2022/08/31 11:49:43;;;;;;;1.27;1.17;;;22.80;81.00;;;;;;5063485;28;20581;-35
2022/08/31 11:52:28;;;;;;;2.00;1.20;;;22.70;80.10;;;;;;5064580;28;20020;-36
2022/08/31 11:55:08;;;;;;;4.20;1.20;;;22.80;80.30;;;;;;5063487;28;20056;-37
2022/08/31 11:58:06;;;;;;;3.30;1.13;;;22.80;80.40;;;;;;5063768;28;20036;-36
2022/08/31 12:00:57;;;;;;;2.63;1.20;;;22.80;80.40;;;;;;5064553;28;20471;-37
2022/08/31 12:03:43;;;;;;;1.55;1.02;;;22.80;80.00;;;;;;5063995;28;20624;-37
2022/08/31 12:06:24;;;;;;;1.17;1.00;;;22.80;79.70;;;;;;5064428;28;20070;-35
2022/08/31 12:08:55;;;;;;;1.20;1.10;;;22.80;79.80;;;;;;5063540;28;20024;-35
2022/08/31 12:11:33;;;;;;;0.70;0.70;;;23.00;80.10;;;;;;5063710;28;20017;-37
2022/08/31 12:14:21;;;;;;;1.77;1.02;;;23.10;80.20;;;;;;5064096;28;20380;-36
2022/08/31 12:16:56;;;;;;;1.63;1.52;;;23.20;79.50;;;;;;5063374;28;20373;-35
2022/08/31 12:25:57;;;;;;;1.42;0.90;;;23.40;79.10;;;;;;5063414;28;20116;-37
2022/08/31 12:28:49;;;;;;;1.27;0.90;;;23.50;78.60;;;;;;5065177;28;20105;-37
2022/08/31 12:31:17;;;;;;;2.65;1.10;;;23.50;78.30;;;;;;5064151;28;20034;-36
2022/08/31 12:33:54;;;;;;;1.00;0.90;;;23.50;78.30;;;;;;5062900;28;20387;-36
2022/08/31 12:36:27;;;;;;;3.03;1.50;;;23.50;78.40;;;;;;5064275;28;20129;-36
2022/08/31 12:39:09;;;;;;;1.90;0.82;;;23.60;78.50;;;;;;5063695;28;20070;-36
2022/08/31 12:41:40;;;;;;;;;;;23.70;78.30;;;;;;5061068;28;20158;-36
2022/08/31 12:44:06;;;;;;;1.50;1.00;;;23.70;78.10;;;;;;5063039;28;20279;-36
2022/08/31 12:46:51;;;;;;;1.10;0.90;;;23.80;77.40;;;;;;5062987;28;20468;-37
2022/08/31 12:49:26;;;;;;;2.35;1.20;;;23.80;76.20;;;;;;5063516;28;20107;-36
2022/08/31 12:52:26;;;;;;;3.42;1.20;;;23.70;76.40;;;;;;5059907;28;20833;-37
2022/08/31 12:55:07;;;;;;;2.80;0.90;;;23.70;76.10;;;;;;5042594;28;20139;-39
2022/08/31 12:57:52;;;;;;;0.98;0.80;;;23.70;76.20;;;;;;5053205;28;20036;-36
2022/08/31 13:00:25;;;;;;;1.42;0.90;;;23.70;76.50;;;;;;5063486;28;20032;-36
2022/08/31 13:03:13;;;;;;;1.00;0.88;;;23.70;75.80;;;;;;5064043;28;20464;-37
2022/08/31 13:05:38;;;;;;;1.33;0.63;;;23.70;76.00;;;;;;5056264;28;20040;-37
2022/08/31 13:08:21;;;;;;;2.33;0.85;;;23.80;76.00;;;;;;5062709;28;20097;-37
2022/08/31 13:10:47;;;;;;;1.10;0.80;;;23.80;76.10;;;;;;5063174;28;20508;-36
2022/08/31 13:13:29;;;;;;;1.48;0.75;;;23.90;76.20;;;;;;5063845;28;20017;-36
2022/08/31 13:16:03;;;;;;;0.77;0.70;;;23.90;76.00;;;;;;5063389;28;20734;-36
2022/08/31 13:18:29;;;;;;;2.60;1.08;;;24.10;75.70;;;;;;5063436;28;20043;-36
2022/08/31 13:21:02;;;;;;;1.77;0.70;;;24.20;74.50;;;;;;5062295;28;20632;-36
2022/08/31 13:23:38;;;;;;;3.38;1.10;;;24.30;74.90;;;;;;5052977;28;20025;-37
2022/08/31 13:26:19;;;;;;;2.33;0.82;;;24.30;74.50;;;;;;5063693;28;20032;-36